sensor_id;sensor_type;location;lat;lon;timestamp;temperature;humidity
36318;DHT22;33920;48.166;8.074;2022-07-11T00:01:10;18.00;61.00
36318;DHT22;33920;48.166;8.074;2022-07-11T00:03:42;17.10;60.00
36318;DHT22;33920;48.166;8.074;2022-07-11T00:06:08;17.50;61.40
36318;DHT22;33920;48.166;8.074;2022-07-11T00:08:34;17.60;61.30
36318;DHT22;33920;48.166;8.074;2022-07-11T00:10:59;17.00;61.10
36318;DHT22;33920;48.166;8.074;2022-07-11T00:13:25;18.10;61.90
36318;DHT22;33920;48.166;8.074;2022-07-11T00:15:50;17.20;61.50
36318;DHT22;33920;48.166;8.074;2022-07-11T00:18:16;17.90;61.90
36318;DHT22;33920;48.166;8.074;2022-07-11T00:20:48;17.00;60.80
36318;DHT22;33920;48.166;8.074;2022-07-11T00:23:14;17.10;61.90
36318;DHT22;33920;48.166;8.074;2022-07-11T00:25:39;17.00;61.10
36318;DHT22;33920;48.166;8.074;2022-07-11T00:30:30;17.00;60.80
36318;DHT22;33920;48.166;8.074;2022-07-11T00:32:55;16.90;61.50
36318;DHT22;33920;48.166;8.074;2022-07-11T00:38:16;17.00;60.60
36318;DHT22;33920;48.166;8.074;2022-07-11T00:40:42;18.20;62.30
36318;DHT22;33920;48.166;8.074;2022-07-11T00:43:07;17.70;62.10
36318;DHT22;33920;48.166;8.074;2022-07-11T00:45:33;17.30;62.30
36318;DHT22;33920;48.166;8.074;2022-07-11T00:47:58;16.90;62.20
36318;DHT22;33920;48.166;8.074;2022-07-11T00:52:40;16.80;61.30
36318;DHT22;33920;48.166;8.074;2022-07-11T00:55:07;17.70;62.40
36318;DHT22;33920;48.166;8.074;2022-07-11T00:57:36;16.70;62.40
36318;DHT22;33920;48.166;8.074;2022-07-11T01:00:03;17.80;63.10
36318;DHT22;33920;48.166;8.074;2022-07-11T01:02:29;16.80;62.20
36318;DHT22;33920;48.166;8.074;2022-07-11T01:05:05;16.70;61.60
36318;DHT22;33920;48.166;8.074;2022-07-11T01:09:59;16.70;62.30
36318;DHT22;33920;48.166;8.074;2022-07-11T01:12:25;17.30;62.90
36318;DHT22;33920;48.166;8.074;2022-07-11T01:14:55;17.80;63.10
36318;DHT22;33920;48.166;8.074;2022-07-11T01:22:07;16.60;62.40
36318;DHT22;33920;48.166;8.074;2022-07-11T01:24:33;15.80;62.30
36318;DHT22;33920;48.166;8.074;2022-07-11T01:26:58;18.00;63.70
36318;DHT22;33920;48.166;8.074;2022-07-11T01:29:24;17.70;63.40
36318;DHT22;33920;48.166;8.074;2022-07-11T01:31:50;17.80;63.80
36318;DHT22;33920;48.166;8.074;2022-07-11T01:34:15;16.10;62.90
36318;DHT22;33920;48.166;8.074;2022-07-11T01:36:41;17.60;64.20
36318;DHT22;33920;48.166;8.074;2022-07-11T01:41:35;16.50;62.70
36318;DHT22;33920;48.166;8.074;2022-07-11T01:46:27;16.50;62.20
36318;DHT22;33920;48.166;8.074;2022-07-11T01:48:53;16.40;63.80
36318;DHT22;33920;48.166;8.074;2022-07-11T01:51:19;17.20;64.30
36318;DHT22;33920;48.166;8.074;2022-07-11T01:56:02;16.40;63.40
36318;DHT22;33920;48.166;8.074;2022-07-11T02:05:40;16.50;62.40
36318;DHT22;33920;48.166;8.074;2022-07-11T02:08:07;17.30;64.80
36318;DHT22;33920;48.166;8.074;2022-07-11T02:12:52;16.40;63.10
36318;DHT22;33920;48.166;8.074;2022-07-11T02:22:43;16.30;63.10
36318;DHT22;33920;48.166;8.074;2022-07-11T02:27:29;16.20;63.40
36318;DHT22;33920;48.166;8.074;2022-07-11T02:29:57;16.80;66.10
36318;DHT22;33920;48.166;8.074;2022-07-11T02:32:23;17.50;65.40
36318;DHT22;33920;48.166;8.074;2022-07-11T02:34:49;16.40;65.30
36318;DHT22;33920;48.166;8.074;2022-07-11T02:37:14;17.50;65.70
36318;DHT22;33920;48.166;8.074;2022-07-11T02:39:40;15.60;64.50
36318;DHT22;33920;48.166;8.074;2022-07-11T02:42:11;17.30;65.50
36318;DHT22;33920;48.166;8.074;2022-07-11T02:52:04;16.10;64.50
36318;DHT22;33920;48.166;8.074;2022-07-11T02:54:39;16.10;65.20
36318;DHT22;33920;48.166;8.074;2022-07-11T02:57:08;16.00;65.60
36318;DHT22;33920;48.166;8.074;2022-07-11T03:04:34;16.10;64.60
36318;DHT22;33920;48.166;8.074;2022-07-11T03:09:21;16.20;64.60
36318;DHT22;33920;48.166;8.074;2022-07-11T03:14:35;16.10;64.10
36318;DHT22;33920;48.166;8.074;2022-07-11T03:19:53;16.00;64.90
36318;DHT22;33920;48.166;8.074;2022-07-11T03:22:19;15.60;64.90
36318;DHT22;33920;48.166;8.074;2022-07-11T03:24:44;15.80;66.10
36318;DHT22;33920;48.166;8.074;2022-07-11T03:27:19;15.80;64.70
36318;DHT22;33920;48.166;8.074;2022-07-11T03:29:44;16.90;66.70
36318;DHT22;33920;48.166;8.074;2022-07-11T03:32:13;15.80;66.10
36318;DHT22;33920;48.166;8.074;2022-07-11T03:34:48;15.70;65.20
36318;DHT22;33920;48.166;8.074;2022-07-11T03:39:58;15.70;65.40
36318;DHT22;33920;48.166;8.074;2022-07-11T03:42:27;15.60;66.20
36318;DHT22;33920;48.166;8.074;2022-07-11T03:44:53;16.50;67.20
36318;DHT22;33920;48.166;8.074;2022-07-11T03:47:19;15.60;66.80
36318;DHT22;33920;48.166;8.074;2022-07-11T03:49:45;15.60;67.00
36318;DHT22;33920;48.166;8.074;2022-07-11T03:56:46;15.70;66.10
36318;DHT22;33920;48.166;8.074;2022-07-11T03:59:12;16.80;68.10
36318;DHT22;33920;48.166;8.074;2022-07-11T04:04:12;15.60;66.30
36318;DHT22;33920;48.166;8.074;2022-07-11T04:06:38;16.80;68.70
36318;DHT22;33920;48.166;8.074;2022-07-11T04:13:53;15.50;66.40
36318;DHT22;33920;48.166;8.074;2022-07-11T04:16:18;16.50;68.30
36318;DHT22;33920;48.166;8.074;2022-07-11T04:23:18;15.40;66.40
36318;DHT22;33920;48.166;8.074;2022-07-11T04:25:44;15.40;68.20
36318;DHT22;33920;48.166;8.074;2022-07-11T04:28:10;16.50;68.80
36318;DHT22;33920;48.166;8.074;2022-07-11T04:30:35;16.50;69.00
36318;DHT22;33920;48.166;8.074;2022-07-11T04:35:19;15.50;67.30
36318;DHT22;33920;48.166;8.074;2022-07-11T04:42:20;15.40;68.00
36318;DHT22;33920;48.166;8.074;2022-07-11T04:44:48;16.50;68.90
36318;DHT22;33920;48.166;8.074;2022-07-11T04:47:20;16.60;69.40
36318;DHT22;33920;48.166;8.074;2022-07-11T04:49:46;16.60;68.50
36318;DHT22;33920;48.166;8.074;2022-07-11T04:52:14;15.60;68.60
36318;DHT22;33920;48.166;8.074;2022-07-11T04:54:51;15.40;68.10
36318;DHT22;33920;48.166;8.074;2022-07-11T04:57:17;16.60;70.20
36318;DHT22;33920;48.166;8.074;2022-07-11T04:59:42;16.40;69.30
36318;DHT22;33920;48.166;8.074;2022-07-11T05:04:32;15.50;68.00
36318;DHT22;33920;48.166;8.074;2022-07-11T05:14:16;15.50;68.60
36318;DHT22;33920;48.166;8.074;2022-07-11T05:16:42;16.90;70.60
36318;DHT22;33920;48.166;8.074;2022-07-11T05:19:07;16.00;69.10
36318;DHT22;33920;48.166;8.074;2022-07-11T05:21:33;16.60;69.90
36318;DHT22;33920;48.166;8.074;2022-07-11T05:23:59;16.60;70.50
36318;DHT22;33920;48.166;8.074;2022-07-11T05:26:25;16.70;70.10
36318;DHT22;33920;48.166;8.074;2022-07-11T05:28:50;15.60;69.30
36318;DHT22;33920;48.166;8.074;2022-07-11T05:31:16;15.70;69.70
36318;DHT22;33920;48.166;8.074;2022-07-11T05:33:42;17.00;70.40
36318;DHT22;33920;48.166;8.074;2022-07-11T05:43:16;15.90;70.30
36318;DHT22;33920;48.166;8.074;2022-07-11T05:48:07;16.10;70.30
36318;DHT22;33920;48.166;8.074;2022-07-11T05:50:33;16.80;72.50
36318;DHT22;33920;48.166;8.074;2022-07-11T05:52:58;16.40;71.70
36318;DHT22;33920;48.166;8.074;2022-07-11T05:55:24;16.40;71.60
36318;DHT22;33920;48.166;8.074;2022-07-11T05:57:50;17.70;71.70
36318;DHT22;33920;48.166;8.074;2022-07-11T06:00:15;17.70;70.60
36318;DHT22;33920;48.166;8.074;2022-07-11T06:15:03;17.50;69.70
36318;DHT22;33920;48.166;8.074;2022-07-11T06:19:50;18.50;66.60
36318;DHT22;33920;48.166;8.074;2022-07-11T06:31:35;23.90;54.30
36318;DHT22;33920;48.166;8.074;2022-07-11T06:34:03;24.80;51.40
36318;DHT22;33920;48.166;8.074;2022-07-11T06:38:59;26.10;47.20
36318;DHT22;33920;48.166;8.074;2022-07-11T06:41:25;26.70;47.70
36318;DHT22;33920;48.166;8.074;2022-07-11T06:46:20;27.50;45.30
36318;DHT22;33920;48.166;8.074;2022-07-11T06:48:46;27.90;44.50
36318;DHT22;33920;48.166;8.074;2022-07-11T06:51:12;28.30;44.80
36318;DHT22;33920;48.166;8.074;2022-07-11T06:53:37;28.60;42.10
36318;DHT22;33920;48.166;8.074;2022-07-11T06:56:03;29.00;43.10
36318;DHT22;33920;48.166;8.074;2022-07-11T06:58:29;29.10;42.40
36318;DHT22;33920;48.166;8.074;2022-07-11T07:01:03;29.50;40.20
36318;DHT22;33920;48.166;8.074;2022-07-11T07:03:29;29.40;38.80
36318;DHT22;33920;48.166;8.074;2022-07-11T07:05:57;29.40;40.30
36318;DHT22;33920;48.166;8.074;2022-07-11T07:08:33;29.20;41.60
36318;DHT22;33920;48.166;8.074;2022-07-11T07:11:02;29.90;40.10
36318;DHT22;33920;48.166;8.074;2022-07-11T07:13:28;30.10;37.80
36318;DHT22;33920;48.166;8.074;2022-07-11T07:15:55;30.60;40.00
36318;DHT22;33920;48.166;8.074;2022-07-11T07:18:21;30.80;38.80
36318;DHT22;33920;48.166;8.074;2022-07-11T07:20:47;30.60;38.90
36318;DHT22;33920;48.166;8.074;2022-07-11T07:23:13;31.40;37.90
36318;DHT22;33920;48.166;8.074;2022-07-11T07:25:39;31.60;38.70
36318;DHT22;33920;48.166;8.074;2022-07-11T07:38:48;31.50;35.10
36318;DHT22;33920;48.166;8.074;2022-07-11T07:41:14;31.70;35.50
36318;DHT22;33920;48.166;8.074;2022-07-11T07:43:40;32.00;36.30
36318;DHT22;33920;48.166;8.074;2022-07-11T07:46:07;32.20;36.80
36318;DHT22;33920;48.166;8.074;2022-07-11T07:48:35;32.40;35.20
36318;DHT22;33920;48.166;8.074;2022-07-11T07:51:01;32.40;36.60
36318;DHT22;33920;48.166;8.074;2022-07-11T07:53:26;32.60;33.90
36318;DHT22;33920;48.166;8.074;2022-07-11T07:55:54;32.50;33.40
36318;DHT22;33920;48.166;8.074;2022-07-11T07:58:20;32.50;34.90
36318;DHT22;33920;48.166;8.074;2022-07-11T08:00:50;32.70;34.20
36318;DHT22;33920;48.166;8.074;2022-07-11T08:03:35;32.90;34.60
36318;DHT22;33920;48.166;8.074;2022-07-11T08:06:00;33.00;33.00
36318;DHT22;33920;48.166;8.074;2022-07-11T08:08:26;33.00;32.30
36318;DHT22;33920;48.166;8.074;2022-07-11T08:11:11;33.20;32.80
36318;DHT22;33920;48.166;8.074;2022-07-11T08:13:42;33.40;33.70
36318;DHT22;33920;48.166;8.074;2022-07-11T08:16:14;33.20;30.00
36318;DHT22;33920;48.166;8.074;2022-07-11T08:18:42;33.40;31.30
36318;DHT22;33920;48.166;8.074;2022-07-11T08:21:11;33.20;31.50
36318;DHT22;33920;48.166;8.074;2022-07-11T08:23:47;33.10;30.00
36318;DHT22;33920;48.166;8.074;2022-07-11T08:26:13;32.90;32.00
36318;DHT22;33920;48.166;8.074;2022-07-11T08:28:39;33.50;32.80
36318;DHT22;33920;48.166;8.074;2022-07-11T08:31:04;33.20;34.60
36318;DHT22;33920;48.166;8.074;2022-07-11T08:33:33;33.50;31.90
36318;DHT22;33920;48.166;8.074;2022-07-11T08:35:58;33.80;33.30
36318;DHT22;33920;48.166;8.074;2022-07-11T08:38:27;33.70;30.00
36318;DHT22;33920;48.166;8.074;2022-07-11T08:40:52;33.30;30.50
36318;DHT22;33920;48.166;8.074;2022-07-11T08:43:29;32.90;31.40
36318;DHT22;33920;48.166;8.074;2022-07-11T10:11:50;29.10;40.90
36318;DHT22;33920;48.166;8.074;2022-07-11T10:14:20;28.10;39.50
36318;DHT22;33920;48.166;8.074;2022-07-11T10:26:20;27.50;40.40
36318;DHT22;33920;48.166;8.074;2022-07-11T10:28:57;27.20;42.20
36318;DHT22;33920;48.166;8.074;2022-07-11T10:31:25;27.00;41.90
36318;DHT22;33920;48.166;8.074;2022-07-11T10:34:06;26.70;40.60
36318;DHT22;33920;48.166;8.074;2022-07-11T10:36:33;26.60;43.70
36318;DHT22;33920;48.166;8.074;2022-07-11T10:39:18;26.50;44.10
36318;DHT22;33920;48.166;8.074;2022-07-11T10:41:47;26.30;41.80
36318;DHT22;33920;48.166;8.074;2022-07-11T10:44:12;26.20;42.70
36318;DHT22;33920;48.166;8.074;2022-07-11T10:46:38;26.10;43.20
36318;DHT22;33920;48.166;8.074;2022-07-11T10:59:25;25.60;43.10
36318;DHT22;33920;48.166;8.074;2022-07-11T11:10:00;25.50;44.50
36318;DHT22;33920;48.166;8.074;2022-07-11T11:17:53;25.40;45.00
36318;DHT22;33920;48.166;8.074;2022-07-11T11:20:31;25.30;45.10
36318;DHT22;33920;48.166;8.074;2022-07-11T11:23:10;25.30;44.30
36318;DHT22;33920;48.166;8.074;2022-07-11T11:25:36;25.10;42.60
36318;DHT22;33920;48.166;8.074;2022-07-11T11:28:03;25.20;43.90
36318;DHT22;33920;48.166;8.074;2022-07-11T11:30:31;25.30;44.20
36318;DHT22;33920;48.166;8.074;2022-07-11T11:32:56;25.30;44.80
36318;DHT22;33920;48.166;8.074;2022-07-11T11:35:22;25.20;45.30
36318;DHT22;33920;48.166;8.074;2022-07-11T11:37:48;25.40;44.50
36318;DHT22;33920;48.166;8.074;2022-07-11T11:40:14;25.30;44.90
36318;DHT22;33920;48.166;8.074;2022-07-11T11:44:58;25.20;44.50
36318;DHT22;33920;48.166;8.074;2022-07-11T11:47:26;25.30;45.50
36318;DHT22;33920;48.166;8.074;2022-07-11T11:49:53;25.50;44.80
36318;DHT22;33920;48.166;8.074;2022-07-11T11:52:19;25.30;45.90
36318;DHT22;33920;48.166;8.074;2022-07-11T11:54:51;25.40;44.70
36318;DHT22;33920;48.166;8.074;2022-07-11T11:57:16;25.40;44.60
36318;DHT22;33920;48.166;8.074;2022-07-11T11:59:42;25.30;44.60
36318;DHT22;33920;48.166;8.074;2022-07-11T12:02:09;25.40;45.20
36318;DHT22;33920;48.166;8.074;2022-07-11T12:04:35;25.40;45.10
36318;DHT22;33920;48.166;8.074;2022-07-11T12:07:03;25.50;44.60
36318;DHT22;33920;48.166;8.074;2022-07-11T12:11:45;25.40;43.50
36318;DHT22;33920;48.166;8.074;2022-07-11T12:14:12;25.30;44.20
36318;DHT22;33920;48.166;8.074;2022-07-11T12:16:48;25.50;43.80
36318;DHT22;33920;48.166;8.074;2022-07-11T12:21:46;25.10;44.40
36318;DHT22;33920;48.166;8.074;2022-07-11T12:24:17;25.20;44.80
36318;DHT22;33920;48.166;8.074;2022-07-11T12:26:43;25.20;44.70
36318;DHT22;33920;48.166;8.074;2022-07-11T12:29:18;25.20;45.10
36318;DHT22;33920;48.166;8.074;2022-07-11T12:31:52;25.30;44.80
36318;DHT22;33920;48.166;8.074;2022-07-11T12:34:19;25.30;44.70
36318;DHT22;33920;48.166;8.074;2022-07-11T12:36:45;25.30;43.90
36318;DHT22;33920;48.166;8.074;2022-07-11T12:39:25;25.40;44.50
36318;DHT22;33920;48.166;8.074;2022-07-11T12:41:55;25.40;44.20
36318;DHT22;33920;48.166;8.074;2022-07-11T12:44:25;25.70;44.10
36318;DHT22;33920;48.166;8.074;2022-07-11T12:47:10;26.10;44.60
36318;DHT22;33920;48.166;8.074;2022-07-11T12:49:36;25.50;44.70
36318;DHT22;33920;48.166;8.074;2022-07-11T12:52:02;25.40;44.50
36318;DHT22;33920;48.166;8.074;2022-07-11T12:54:32;25.40;44.30
36318;DHT22;33920;48.166;8.074;2022-07-11T12:57:00;25.40;43.90
36318;DHT22;33920;48.166;8.074;2022-07-11T12:59:30;25.40;44.30
36318;DHT22;33920;48.166;8.074;2022-07-11T13:04:34;25.50;42.90
36318;DHT22;33920;48.166;8.074;2022-07-11T13:12:34;25.50;43.00
36318;DHT22;33920;48.166;8.074;2022-07-11T13:17:16;26.50;43.80
36318;DHT22;33920;48.166;8.074;2022-07-11T13:19:41;25.50;44.40
36318;DHT22;33920;48.166;8.074;2022-07-11T13:22:07;26.10;44.80
36318;DHT22;33920;48.166;8.074;2022-07-11T13:24:33;25.50;44.90
36318;DHT22;33920;48.166;8.074;2022-07-11T13:29:11;25.50;41.70
36318;DHT22;33920;48.166;8.074;2022-07-11T13:31:37;25.50;44.30
36318;DHT22;33920;48.166;8.074;2022-07-11T13:34:02;25.50;44.10
36318;DHT22;33920;48.166;8.074;2022-07-11T13:36:28;25.70;42.30
36318;DHT22;33920;48.166;8.074;2022-07-11T13:38:54;25.50;43.80
36318;DHT22;33920;48.166;8.074;2022-07-11T13:41:20;25.40;43.30
36318;DHT22;33920;48.166;8.074;2022-07-11T13:43:46;25.80;43.00
36318;DHT22;33920;48.166;8.074;2022-07-11T13:46:12;25.30;43.70
36318;DHT22;33920;48.166;8.074;2022-07-11T13:48:37;25.40;43.30
36318;DHT22;33920;48.166;8.074;2022-07-11T13:51:07;25.40;44.20
36318;DHT22;33920;48.166;8.074;2022-07-11T13:56:05;25.30;43.10
36318;DHT22;33920;48.166;8.074;2022-07-11T13:58:31;25.30;42.90
36318;DHT22;33920;48.166;8.074;2022-07-11T14:00:58;25.30;42.20
36318;DHT22;33920;48.166;8.074;2022-07-11T14:03:24;25.80;43.10
36318;DHT22;33920;48.166;8.074;2022-07-11T14:05:50;25.30;41.80
36318;DHT22;33920;48.166;8.074;2022-07-11T14:08:15;25.40;42.20
36318;DHT22;33920;48.166;8.074;2022-07-11T14:10:42;25.40;41.80
36318;DHT22;33920;48.166;8.074;2022-07-11T14:13:08;25.30;41.70
36318;DHT22;33920;48.166;8.074;2022-07-11T14:15:33;25.30;42.60
36318;DHT22;33920;48.166;8.074;2022-07-11T14:17:59;25.30;42.10
36318;DHT22;33920;48.166;8.074;2022-07-11T14:20:25;25.30;43.10
36318;DHT22;33920;48.166;8.074;2022-07-11T14:22:51;25.30;42.80
36318;DHT22;33920;48.166;8.074;2022-07-11T14:25:17;25.40;42.90
36318;DHT22;33920;48.166;8.074;2022-07-11T14:27:43;25.40;43.10
36318;DHT22;33920;48.166;8.074;2022-07-11T14:30:09;25.50;44.00
36318;DHT22;33920;48.166;8.074;2022-07-11T14:32:37;25.50;42.20
36318;DHT22;33920;48.166;8.074;2022-07-11T14:35:03;25.40;42.00
36318;DHT22;33920;48.166;8.074;2022-07-11T14:37:29;25.30;42.30
36318;DHT22;33920;48.166;8.074;2022-07-11T14:39:54;25.30;42.20
36318;DHT22;33920;48.166;8.074;2022-07-11T14:44:52;25.20;41.80
36318;DHT22;33920;48.166;8.074;2022-07-11T14:47:24;25.20;42.90
36318;DHT22;33920;48.166;8.074;2022-07-11T14:49:57;25.20;43.40
36318;DHT22;33920;48.166;8.074;2022-07-11T14:52:23;25.20;42.60
36318;DHT22;33920;48.166;8.074;2022-07-11T14:54:55;25.20;42.50
36318;DHT22;33920;48.166;8.074;2022-07-11T14:57:21;25.30;43.60
36318;DHT22;33920;48.166;8.074;2022-07-11T14:59:47;25.30;43.50
36318;DHT22;33920;48.166;8.074;2022-07-11T15:02:12;24.50;42.90
36318;DHT22;33920;48.166;8.074;2022-07-11T15:04:38;25.40;42.90
36318;DHT22;33920;48.166;8.074;2022-07-11T15:07:04;25.50;43.10
36318;DHT22;33920;48.166;8.074;2022-07-11T15:09:48;25.50;42.40
36318;DHT22;33920;48.166;8.074;2022-07-11T15:12:32;25.60;42.70
36318;DHT22;33920;48.166;8.074;2022-07-11T15:14:57;25.70;42.20
36318;DHT22;33920;48.166;8.074;2022-07-11T15:17:23;25.60;43.90
36318;DHT22;33920;48.166;8.074;2022-07-11T15:19:49;25.60;44.60
36318;DHT22;33920;48.166;8.074;2022-07-11T15:22:15;25.70;43.60
36318;DHT22;33920;48.166;8.074;2022-07-11T15:24:41;25.70;43.50
36318;DHT22;33920;48.166;8.074;2022-07-11T15:27:07;25.70;43.90
36318;DHT22;33920;48.166;8.074;2022-07-11T15:29:33;25.70;43.90
36318;DHT22;33920;48.166;8.074;2022-07-11T15:31:59;25.60;43.30
36318;DHT22;33920;48.166;8.074;2022-07-11T15:34:27;25.50;43.30
36318;DHT22;33920;48.166;8.074;2022-07-11T15:36:52;25.40;44.40
36318;DHT22;33920;48.166;8.074;2022-07-11T15:39:18;25.40;44.70
36318;DHT22;33920;48.166;8.074;2022-07-11T15:41:46;25.30;44.90
36318;DHT22;33920;48.166;8.074;2022-07-11T15:44:12;25.30;45.40
36318;DHT22;33920;48.166;8.074;2022-07-11T15:46:38;26.30;47.10
36318;DHT22;33920;48.166;8.074;2022-07-11T15:49:04;25.40;45.30
36318;DHT22;33920;48.166;8.074;2022-07-11T15:51:29;25.50;44.60
36318;DHT22;33920;48.166;8.074;2022-07-11T15:54:02;25.60;43.90
36318;DHT22;33920;48.166;8.074;2022-07-11T15:56:28;25.70;45.20
36318;DHT22;33920;48.166;8.074;2022-07-11T15:58:53;25.70;45.70
36318;DHT22;33920;48.166;8.074;2022-07-11T16:01:21;25.80;45.90
36318;DHT22;33920;48.166;8.074;2022-07-11T16:03:47;25.80;46.10
36318;DHT22;33920;48.166;8.074;2022-07-11T16:06:12;25.20;46.00
36318;DHT22;33920;48.166;8.074;2022-07-11T16:08:39;26.10;45.80
36318;DHT22;33920;48.166;8.074;2022-07-11T16:11:11;25.90;45.50
36318;DHT22;33920;48.166;8.074;2022-07-11T16:13:37;25.80;45.20
36318;DHT22;33920;48.166;8.074;2022-07-11T16:16:03;26.10;46.50
36318;DHT22;33920;48.166;8.074;2022-07-11T16:26:58;25.80;45.20
36318;DHT22;33920;48.166;8.074;2022-07-11T16:40:26;25.80;46.30
36318;DHT22;33920;48.166;8.074;2022-07-11T16:45:27;25.70;46.80
36318;DHT22;33920;48.166;8.074;2022-07-11T16:47:53;25.70;47.70
36318;DHT22;33920;48.166;8.074;2022-07-11T16:50:19;25.90;47.60
36318;DHT22;33920;48.166;8.074;2022-07-11T16:52:44;25.60;48.00
36318;DHT22;33920;48.166;8.074;2022-07-11T16:55:10;25.60;47.60
36318;DHT22;33920;48.166;8.074;2022-07-11T16:57:36;26.00;47.30
36318;DHT22;33920;48.166;8.074;2022-07-11T17:00:04;25.60;46.90
36318;DHT22;33920;48.166;8.074;2022-07-11T17:02:30;25.60;47.40
36318;DHT22;33920;48.166;8.074;2022-07-11T17:04:56;25.50;47.20
36318;DHT22;33920;48.166;8.074;2022-07-11T17:07:21;25.50;48.10
36318;DHT22;33920;48.166;8.074;2022-07-11T17:09:47;25.70;48.50
36318;DHT22;33920;48.166;8.074;2022-07-11T17:12:13;25.40;48.70
36318;DHT22;33920;48.166;8.074;2022-07-11T17:14:41;25.40;48.20
36318;DHT22;33920;48.166;8.074;2022-07-11T17:17:07;25.30;48.00
36318;DHT22;33920;48.166;8.074;2022-07-11T17:19:33;25.20;48.50
36318;DHT22;33920;48.166;8.074;2022-07-11T17:22:01;24.90;48.80
36318;DHT22;33920;48.166;8.074;2022-07-11T17:24:27;25.10;48.20
36318;DHT22;33920;48.166;8.074;2022-07-11T17:29:19;25.00;48.20
36318;DHT22;33920;48.166;8.074;2022-07-11T17:31:45;25.00;48.80
36318;DHT22;33920;48.166;8.074;2022-07-11T17:34:12;25.00;49.00
36318;DHT22;33920;48.166;8.074;2022-07-11T17:36:39;24.90;48.90
36318;DHT22;33920;48.166;8.074;2022-07-11T17:39:05;24.90;49.10
36318;DHT22;33920;48.166;8.074;2022-07-11T17:41:30;24.70;49.40
36318;DHT22;33920;48.166;8.074;2022-07-11T17:43:57;24.70;48.90
36318;DHT22;33920;48.166;8.074;2022-07-11T17:46:22;24.70;49.80
36318;DHT22;33920;48.166;8.074;2022-07-11T17:48:48;24.70;49.40
36318;DHT22;33920;48.166;8.074;2022-07-11T17:53:47;24.60;49.10
36318;DHT22;33920;48.166;8.074;2022-07-11T17:56:13;24.60;49.90
36318;DHT22;33920;48.166;8.074;2022-07-11T17:58:39;24.60;49.40
36318;DHT22;33920;48.166;8.074;2022-07-11T18:01:05;24.50;50.10
36318;DHT22;33920;48.166;8.074;2022-07-11T18:03:31;24.40;50.50
36318;DHT22;33920;48.166;8.074;2022-07-11T18:05:57;24.30;50.40
36318;DHT22;33920;48.166;8.074;2022-07-11T18:08:23;24.30;50.60
36318;DHT22;33920;48.166;8.074;2022-07-11T18:10:55;24.20;50.20
36318;DHT22;33920;48.166;8.074;2022-07-11T18:20:48;23.90;49.90
36318;DHT22;33920;48.166;8.074;2022-07-11T18:27:04;23.80;50.80
36318;DHT22;33920;48.166;8.074;2022-07-11T18:33:49;23.80;48.80
36318;DHT22;33920;48.166;8.074;2022-07-11T18:36:35;23.80;51.50
36318;DHT22;33920;48.166;8.074;2022-07-11T18:41:35;23.70;49.70
36318;DHT22;33920;48.166;8.074;2022-07-11T18:44:01;23.70;51.00
36318;DHT22;33920;48.166;8.074;2022-07-11T18:46:34;23.70;51.40
36318;DHT22;33920;48.166;8.074;2022-07-11T18:49:15;23.60;50.40
36318;DHT22;33920;48.166;8.074;2022-07-11T18:51:41;23.60;50.80
36318;DHT22;33920;48.166;8.074;2022-07-11T18:58:31;23.00;49.50
36318;DHT22;33920;48.166;8.074;2022-07-11T19:05:43;23.40;52.20
36318;DHT22;33920;48.166;8.074;2022-07-11T19:08:14;23.30;50.30
36318;DHT22;33920;48.166;8.074;2022-07-11T19:10:52;23.30;51.70
36318;DHT22;33920;48.166;8.074;2022-07-11T19:13:22;22.20;51.30
36318;DHT22;33920;48.166;8.074;2022-07-11T19:16:00;23.30;49.70
36318;DHT22;33920;48.166;8.074;2022-07-11T19:18:27;23.20;51.30
36318;DHT22;33920;48.166;8.074;2022-07-11T19:20:53;23.20;52.30
36318;DHT22;33920;48.166;8.074;2022-07-11T19:23:21;23.20;53.40
36318;DHT22;33920;48.166;8.074;2022-07-11T19:25:47;23.00;54.50
36318;DHT22;33920;48.166;8.074;2022-07-11T19:28:12;23.10;54.60
36318;DHT22;33920;48.166;8.074;2022-07-11T19:30:38;23.00;51.70
36318;DHT22;33920;48.166;8.074;2022-07-11T19:33:06;23.10;54.30
36318;DHT22;33920;48.166;8.074;2022-07-11T19:35:42;23.30;54.70
36318;DHT22;33920;48.166;8.074;2022-07-11T19:38:23;23.80;55.70
36318;DHT22;33920;48.166;8.074;2022-07-11T20:06:49;22.70;54.00
36318;DHT22;33920;48.166;8.074;2022-07-11T20:11:47;22.40;55.30
36318;DHT22;33920;48.166;8.074;2022-07-11T20:14:13;22.40;55.40
36318;DHT22;33920;48.166;8.074;2022-07-11T20:16:38;22.40;55.40
36318;DHT22;33920;48.166;8.074;2022-07-11T20:19:04;22.30;56.40
36318;DHT22;33920;48.166;8.074;2022-07-11T20:21:30;23.00;54.70
36318;DHT22;33920;48.166;8.074;2022-07-11T20:23:55;23.40;55.00
36318;DHT22;33920;48.166;8.074;2022-07-11T20:28:39;22.20;53.80
36318;DHT22;33920;48.166;8.074;2022-07-11T20:31:05;22.20;55.30
36318;DHT22;33920;48.166;8.074;2022-07-11T20:33:31;22.80;54.80
36318;DHT22;33920;48.166;8.074;2022-07-11T20:38:11;22.20;54.40
36318;DHT22;33920;48.166;8.074;2022-07-11T20:40:36;22.20;54.20
36318;DHT22;33920;48.166;8.074;2022-07-11T20:45:27;22.20;53.40
36318;DHT22;33920;48.166;8.074;2022-07-11T20:47:52;22.20;55.50
36318;DHT22;33920;48.166;8.074;2022-07-11T20:52:32;22.10;55.80
36318;DHT22;33920;48.166;8.074;2022-07-11T20:55:00;22.10;54.50
36318;DHT22;33920;48.166;8.074;2022-07-11T20:57:25;22.00;55.60
36318;DHT22;33920;48.166;8.074;2022-07-11T20:59:51;22.00;55.50
36318;DHT22;33920;48.166;8.074;2022-07-11T21:02:17;22.30;56.30
36318;DHT22;33920;48.166;8.074;2022-07-11T21:04:43;21.90;53.30
36318;DHT22;33920;48.166;8.074;2022-07-11T21:07:08;22.00;54.60
36318;DHT22;33920;48.166;8.074;2022-07-11T21:09:34;22.50;55.70
36318;DHT22;33920;48.166;8.074;2022-07-11T21:11:59;23.00;56.00
36318;DHT22;33920;48.166;8.074;2022-07-11T21:14:25;21.90;54.90
36318;DHT22;33920;48.166;8.074;2022-07-11T21:16:51;21.90;55.10
36318;DHT22;33920;48.166;8.074;2022-07-11T21:19:16;21.90;56.00
36318;DHT22;33920;48.166;8.074;2022-07-11T21:21:42;21.80;55.40
36318;DHT22;33920;48.166;8.074;2022-07-11T21:24:16;21.90;56.80
36318;DHT22;33920;48.166;8.074;2022-07-11T21:26:42;21.70;54.50
36318;DHT22;33920;48.166;8.074;2022-07-11T21:29:08;22.10;56.20
36318;DHT22;33920;48.166;8.074;2022-07-11T21:31:35;21.60;55.70
36318;DHT22;33920;48.166;8.074;2022-07-11T21:34:01;21.60;56.50
36318;DHT22;33920;48.166;8.074;2022-07-11T21:36:26;21.60;56.40
36318;DHT22;33920;48.166;8.074;2022-07-11T21:38:52;22.60;56.50
36318;DHT22;33920;48.166;8.074;2022-07-11T21:41:18;22.30;57.20
36318;DHT22;33920;48.166;8.074;2022-07-11T21:43:43;22.40;57.00
36318;DHT22;33920;48.166;8.074;2022-07-11T21:46:09;21.50;58.00
36318;DHT22;33920;48.166;8.074;2022-07-11T21:48:34;21.80;58.20
36318;DHT22;33920;48.166;8.074;2022-07-11T21:52:36;21.50;57.00
36318;DHT22;33920;48.166;8.074;2022-07-11T21:55:02;21.40;57.80